Terminal Aerodrome Forecast
Issued by NWS Cleveland, OH

Home | Current Version | Previous Version | Text Only | Print | Product List | Glossary On
Versions: 1 2 3 4 5 6 7 8 9 10 11 12 13 14 15
000
FTUS41 KCLE 270245 AAA
TAFERI
TAF AMD
KERI 270245Z 2703/2724 20010G20KT P6SM SCT050 OVC120
      TEMPO 2704/2707 4SM -TSRA OVC050CB
     FM270700 20010KT P6SM BKN080
     FM271400 22010G20KT P6SM SCT015
     FM271600 22015G25KT P6SM BKN040
     FM271900 24015G25KT P6SM BKN050=

USA.gov is the U.S. government's official web portal to all federal, state and local government web resources and services.